weather.gov     
National Weather Service

Terminal Aerodrome Forecast
NWS Homepage
This page is being discontinued on March 12, 2014.
The same data is available at this site. Please update your bookmarks.
Thank you, and we apologize for the inconvenience.
Please send an email to SR-SRH.Webmaster@noaa.gov with any concerns.


Current Version
Previous Version:    01  02  03  04  05  06  07  08  09  10  11  12  13  14  15  16  17  18  19  20  21  22  23  24  25  
[Printable]
135
FTUS44 KOUN 162320
TAFOUN
TAF
KOUN 162320Z 1700/1724 15014G22KT P6SM SCT250
     FM170100 13009KT P6SM SCT120 BKN250
     FM171200 09006KT P6SM SCT025 BKN050 PROB30 1716/1719 5SM -RA
      BKN025 OVC050
     FM171900 04008KT 3SM -RA BKN015 OVC025=




135
FTUS44 KOUN 162320
TAFOUN
TAF
KOUN 162320Z 1700/1724 15014G22KT P6SM SCT250
     FM170100 13009KT P6SM SCT120 BKN250
     FM171200 09006KT P6SM SCT025 BKN050 PROB30 1716/1719 5SM -RA
      BKN025 OVC050
     FM171900 04008KT 3SM -RA BKN015 OVC025=


U.S. Dept. of Commerce
NOAA National Weather Service
1325 East West Highway
Silver Spring, MD 20910
E-mail: w-nws.webmaster@noaa.gov
Page last modified: May 16, 2007
NATIONAL WEATHER SERVICE: for Safety, for Work, for Fun - FOR LIFE